Paramount Hatteras — 2CWB5 — position and weather

sailwx.info

Track history (hours):
 
Tides and Currents Weather Stations Pressure Air Temp Water Temp Dewpoint Dewpoint Depression Visibility Wind Speed Wind Dir Waves Ship Positions

Paramount Hatteras

Last reported at 2018-Feb-19 09:36 UTC. Time now 2018-Feb-21 17:24 UTC.
Position N 36°23' E 013°45'.

Length 250 m; draft 11.8 m.

Type: Ship. MMSI: 235076276.

Date/timePositionNaut miles runAvg speedWind from/ knotsBaromVisibWave heightAir tempDewpointWater temp
2018-Feb-19 09:36N 36°23' E 013°45'211.9
2018-Feb-19 09:27N 36°22' E 013°47'811.6
2018-Feb-19 08:46N 36°19' E 013°55'311.2
2018-Feb-19 08:30N 36°17' E 013°59'611.4
2018-Feb-19 08:00N 36°15' E 014°05'611.7
2018-Feb-19 07:29N 36°12' E 014°12'611.6
2018-Feb-19 07:00N 36°10' E 014°18'611.5
2018-Feb-19 06:30N 36°07' E 014°24'611.7
2018-Feb-19 05:59N 36°04' E 014°31'612.0
2018-Feb-19 05:30N 36°01' E 014°37'612.1
2018-Feb-19 05:00N 35°58' E 014°43'610.2
2018-Feb-19 04:24N 35°53' E 014°48'1 1.4
2018-Feb-19 03:56N 35°52' E 014°48'0 0.0
2018-Feb-19 03:29N 35°52' E 014°48'0 0.0
2018-Feb-19 02:59N 35°52' E 014°48'0 0.1
2018-Feb-19 02:23N 35°52' E 014°48'0 0.1
2018-Feb-19 01:59N 35°52' E 014°48'0 0.0
2018-Feb-18 22:23N 35°52' E 014°48'0 0.0
2018-Feb-18 20:50N 35°52' E 014°48'0 0.0
2018-Feb-18 19:17N 35°52' E 014°48'0 0.2
2018-Feb-18 18:59N 35°52' E 014°48'1 1.9
2018-Feb-18 18:30N 35°52' E 014°49'5 8.7
2018-Feb-18 17:58N 35°52' E 014°55'  
Track history (hours):
 
Tides and Currents Weather Stations Pressure Air Temp Water Temp Dewpoint Dewpoint Depression Visibility Wind Speed Wind Dir Waves Ship Positions

Paramount Hatteras

Last reported at 2018-Feb-19 09:36 UTC. Time now 2018-Feb-21 17:24 UTC.
Position N 36°23' E 013°45'.

Length 250 m; draft 11.8 m.

Type: Ship. MMSI: 235076276.

Date/timePositionNaut miles runAvg speedWind from/ knotsBaromVisibWave heightAir tempDewpointWater temp
2018-Feb-19 09:36N 36°23' E 013°45'211.9
2018-Feb-19 09:27N 36°22' E 013°47'811.6
2018-Feb-19 08:46N 36°19' E 013°55'311.2
2018-Feb-19 08:30N 36°17' E 013°59'611.4
2018-Feb-19 08:00N 36°15' E 014°05'611.7
2018-Feb-19 07:29N 36°12' E 014°12'611.6
2018-Feb-19 07:00N 36°10' E 014°18'611.5
2018-Feb-19 06:30N 36°07' E 014°24'611.7
2018-Feb-19 05:59N 36°04' E 014°31'612.0
2018-Feb-19 05:30N 36°01' E 014°37'612.1
2018-Feb-19 05:00N 35°58' E 014°43'610.2
2018-Feb-19 04:24N 35°53' E 014°48'1 1.4
2018-Feb-19 03:56N 35°52' E 014°48'0 0.0
2018-Feb-19 03:29N 35°52' E 014°48'0 0.0
2018-Feb-19 02:59N 35°52' E 014°48'0 0.1
2018-Feb-19 02:23N 35°52' E 014°48'0 0.1
2018-Feb-19 01:59N 35°52' E 014°48'0 0.0
2018-Feb-18 22:23N 35°52' E 014°48'0 0.0
2018-Feb-18 20:50N 35°52' E 014°48'0 0.0
2018-Feb-18 19:17N 35°52' E 014°48'0 0.2
2018-Feb-18 18:59N 35°52' E 014°48'1 1.9
2018-Feb-18 18:30N 35°52' E 014°49'5 8.7
2018-Feb-18 17:58N 35°52' E 014°55'  

Dump ship's entire track history